sensor_id;sensor_type;location;lat;lon;timestamp;P1;durP1;ratioP1;P2;durP2;ratioP2
53751;SDS011;41095;53.090;6.692;2023-06-24T00:01:25;11.95;;;8.60;;
53751;SDS011;41095;53.090;6.692;2023-06-24T00:03:51;10.98;;;8.55;;
53751;SDS011;41095;53.090;6.692;2023-06-24T00:06:21;10.93;;;8.88;;
53751;SDS011;41095;53.090;6.692;2023-06-24T00:08:51;11.20;;;9.43;;
53751;SDS011;41095;53.090;6.692;2023-06-24T00:11:21;12.73;;;9.65;;
53751;SDS011;41095;53.090;6.692;2023-06-24T00:13:47;9.90;;;8.75;;
53751;SDS011;41095;53.090;6.692;2023-06-24T00:16:13;10.13;;;8.45;;
53751;SDS011;41095;53.090;6.692;2023-06-24T00:18:38;11.90;;;7.35;;
53751;SDS011;41095;53.090;6.692;2023-06-24T00:21:06;10.68;;;7.47;;
53751;SDS011;41095;53.090;6.692;2023-06-24T00:23:32;10.93;;;8.43;;
53751;SDS011;41095;53.090;6.692;2023-06-24T00:26:01;8.45;;;7.55;;
53751;SDS011;41095;53.090;6.692;2023-06-24T00:28:27;9.50;;;7.43;;
53751;SDS011;41095;53.090;6.692;2023-06-24T00:30:53;10.43;;;8.15;;
53751;SDS011;41095;53.090;6.692;2023-06-24T00:33:19;9.80;;;7.93;;
53751;SDS011;41095;53.090;6.692;2023-06-24T00:35:45;8.32;;;7.03;;
53751;SDS011;41095;53.090;6.692;2023-06-24T00:38:11;7.93;;;7.13;;
53751;SDS011;41095;53.090;6.692;2023-06-24T00:40:37;12.02;;;9.20;;
53751;SDS011;41095;53.090;6.692;2023-06-24T00:43:04;12.38;;;8.18;;
53751;SDS011;41095;53.090;6.692;2023-06-24T00:45:31;8.57;;;6.95;;
53751;SDS011;41095;53.090;6.692;2023-06-24T00:47:57;9.65;;;7.72;;
53751;SDS011;41095;53.090;6.692;2023-06-24T00:50:23;9.52;;;8.10;;
53751;SDS011;41095;53.090;6.692;2023-06-24T00:52:49;9.57;;;8.43;;
53751;SDS011;41095;53.090;6.692;2023-06-24T00:55:15;8.98;;;8.05;;
53751;SDS011;41095;53.090;6.692;2023-06-24T00:57:44;9.25;;;7.80;;
53751;SDS011;41095;53.090;6.692;2023-06-24T01:00:15;13.20;;;9.20;;
53751;SDS011;41095;53.090;6.692;2023-06-24T01:02:49;9.45;;;7.95;;
53751;SDS011;41095;53.090;6.692;2023-06-24T01:05:15;9.95;;;8.02;;
53751;SDS011;41095;53.090;6.692;2023-06-24T01:07:41;10.88;;;7.97;;
53751;SDS011;41095;53.090;6.692;2023-06-24T01:10:08;12.27;;;9.65;;
53751;SDS011;41095;53.090;6.692;2023-06-24T01:12:35;10.10;;;8.45;;
53751;SDS011;41095;53.090;6.692;2023-06-24T01:15:03;10.30;;;8.18;;
53751;SDS011;41095;53.090;6.692;2023-06-24T01:17:34;11.25;;;8.73;;
53751;SDS011;41095;53.090;6.692;2023-06-24T01:20:07;11.77;;;9.68;;
53751;SDS011;41095;53.090;6.692;2023-06-24T01:28:24;10.30;;;9.23;;
53751;SDS011;41095;53.090;6.692;2023-06-24T01:36:25;9.85;;;8.52;;
53751;SDS011;41095;53.090;6.692;2023-06-24T01:38:58;10.18;;;8.20;;
53751;SDS011;41095;53.090;6.692;2023-06-24T01:41:31;12.90;;;9.27;;
53751;SDS011;41095;53.090;6.692;2023-06-24T01:44:04;11.23;;;8.52;;
53751;SDS011;41095;53.090;6.692;2023-06-24T01:46:31;14.55;;;8.75;;
53751;SDS011;41095;53.090;6.692;2023-06-24T01:49:01;10.38;;;7.78;;
53751;SDS011;41095;53.090;6.692;2023-06-24T01:51:29;12.45;;;9.85;;
53751;SDS011;41095;53.090;6.692;2023-06-24T01:54:01;10.85;;;8.57;;
53751;SDS011;41095;53.090;6.692;2023-06-24T01:56:29;11.73;;;9.40;;
53751;SDS011;41095;53.090;6.692;2023-06-24T01:58:57;12.50;;;10.32;;
53751;SDS011;41095;53.090;6.692;2023-06-24T02:01:27;12.30;;;9.10;;
53751;SDS011;41095;53.090;6.692;2023-06-24T02:03:54;10.48;;;7.65;;
53751;SDS011;41095;53.090;6.692;2023-06-24T02:06:21;11.57;;;8.40;;
53751;SDS011;41095;53.090;6.692;2023-06-24T02:08:48;11.77;;;9.88;;
53751;SDS011;41095;53.090;6.692;2023-06-24T02:11:15;11.27;;;8.73;;
53751;SDS011;41095;53.090;6.692;2023-06-24T02:13:43;9.10;;;7.93;;
53751;SDS011;41095;53.090;6.692;2023-06-24T02:16:09;10.70;;;8.98;;
53751;SDS011;41095;53.090;6.692;2023-06-24T02:18:37;9.93;;;7.18;;
53751;SDS011;41095;53.090;6.692;2023-06-24T02:21:07;12.10;;;8.07;;
53751;SDS011;41095;53.090;6.692;2023-06-24T02:23:34;9.98;;;8.45;;
53751;SDS011;41095;53.090;6.692;2023-06-24T02:26:01;11.98;;;9.35;;
53751;SDS011;41095;53.090;6.692;2023-06-24T02:28:28;12.63;;;8.63;;
53751;SDS011;41095;53.090;6.692;2023-06-24T02:30:56;13.63;;;10.38;;
53751;SDS011;41095;53.090;6.692;2023-06-24T02:33:22;11.25;;;8.82;;
53751;SDS011;41095;53.090;6.692;2023-06-24T02:35:48;10.43;;;8.18;;
53751;SDS011;41095;53.090;6.692;2023-06-24T02:38:14;12.57;;;10.10;;
53751;SDS011;41095;53.090;6.692;2023-06-24T02:40:40;13.55;;;9.98;;
53751;SDS011;41095;53.090;6.692;2023-06-24T02:43:10;10.10;;;9.10;;
53751;SDS011;41095;53.090;6.692;2023-06-24T02:45:35;12.07;;;10.00;;
53751;SDS011;41095;53.090;6.692;2023-06-24T02:48:01;13.40;;;10.05;;
53751;SDS011;41095;53.090;6.692;2023-06-24T02:50:28;13.60;;;9.60;;
53751;SDS011;41095;53.090;6.692;2023-06-24T02:52:54;11.73;;;9.68;;
53751;SDS011;41095;53.090;6.692;2023-06-24T02:55:21;11.57;;;8.68;;
53751;SDS011;41095;53.090;6.692;2023-06-24T02:57:46;10.73;;;9.43;;
53751;SDS011;41095;53.090;6.692;2023-06-24T03:00:13;11.52;;;9.02;;
53751;SDS011;41095;53.090;6.692;2023-06-24T03:02:40;12.20;;;9.52;;
53751;SDS011;41095;53.090;6.692;2023-06-24T03:05:09;10.75;;;8.13;;
53751;SDS011;41095;53.090;6.692;2023-06-24T03:07:36;10.48;;;9.35;;
53751;SDS011;41095;53.090;6.692;2023-06-24T03:10:03;13.18;;;9.55;;
53751;SDS011;41095;53.090;6.692;2023-06-24T03:12:33;13.68;;;9.13;;
53751;SDS011;41095;53.090;6.692;2023-06-24T03:14:58;10.32;;;9.35;;
53751;SDS011;41095;53.090;6.692;2023-06-24T03:17:26;16.42;;;12.13;;
53751;SDS011;41095;53.090;6.692;2023-06-24T03:19:52;10.05;;;8.38;;
53751;SDS011;41095;53.090;6.692;2023-06-24T03:22:17;8.52;;;7.63;;
53751;SDS011;41095;53.090;6.692;2023-06-24T03:24:43;13.90;;;9.85;;
53751;SDS011;41095;53.090;6.692;2023-06-24T03:27:09;11.38;;;10.25;;
53751;SDS011;41095;53.090;6.692;2023-06-24T03:29:35;13.35;;;9.43;;
53751;SDS011;41095;53.090;6.692;2023-06-24T03:32:00;13.43;;;9.63;;
53751;SDS011;41095;53.090;6.692;2023-06-24T03:34:26;13.00;;;8.77;;
53751;SDS011;41095;53.090;6.692;2023-06-24T03:36:52;12.45;;;8.65;;
53751;SDS011;41095;53.090;6.692;2023-06-24T03:39:21;10.20;;;7.78;;
53751;SDS011;41095;53.090;6.692;2023-06-24T03:41:47;12.35;;;8.60;;
53751;SDS011;41095;53.090;6.692;2023-06-24T03:44:13;10.32;;;8.80;;
53751;SDS011;41095;53.090;6.692;2023-06-24T03:46:39;11.75;;;8.95;;
53751;SDS011;41095;53.090;6.692;2023-06-24T03:49:04;8.73;;;7.30;;
53751;SDS011;41095;53.090;6.692;2023-06-24T03:51:31;8.25;;;7.18;;
53751;SDS011;41095;53.090;6.692;2023-06-24T03:53:57;10.60;;;8.07;;
53751;SDS011;41095;53.090;6.692;2023-06-24T03:56:22;8.90;;;7.78;;
53751;SDS011;41095;53.090;6.692;2023-06-24T03:58:48;10.98;;;7.32;;
53751;SDS011;41095;53.090;6.692;2023-06-24T04:01:14;9.38;;;7.70;;
53751;SDS011;41095;53.090;6.692;2023-06-24T04:03:39;7.78;;;6.78;;
53751;SDS011;41095;53.090;6.692;2023-06-24T04:06:05;7.90;;;6.75;;
53751;SDS011;41095;53.090;6.692;2023-06-24T04:08:31;8.57;;;7.35;;
53751;SDS011;41095;53.090;6.692;2023-06-24T04:10:57;9.88;;;8.13;;
53751;SDS011;41095;53.090;6.692;2023-06-24T04:13:25;9.82;;;8.52;;
53751;SDS011;41095;53.090;6.692;2023-06-24T04:15:51;12.43;;;9.02;;
53751;SDS011;41095;53.090;6.692;2023-06-24T04:18:17;11.68;;;8.32;;
53751;SDS011;41095;53.090;6.692;2023-06-24T04:20:43;10.85;;;8.30;;
53751;SDS011;41095;53.090;6.692;2023-06-24T04:23:09;11.95;;;8.70;;
53751;SDS011;41095;53.090;6.692;2023-06-24T04:25:36;10.07;;;8.32;;
53751;SDS011;41095;53.090;6.692;2023-06-24T04:28:02;9.82;;;7.35;;
53751;SDS011;41095;53.090;6.692;2023-06-24T04:30:29;12.15;;;8.75;;
53751;SDS011;41095;53.090;6.692;2023-06-24T04:32:56;9.25;;;7.47;;
53751;SDS011;41095;53.090;6.692;2023-06-24T04:35:21;9.45;;;7.03;;
53751;SDS011;41095;53.090;6.692;2023-06-24T04:37:47;9.10;;;8.18;;
53751;SDS011;41095;53.090;6.692;2023-06-24T04:40:17;8.77;;;7.20;;
53751;SDS011;41095;53.090;6.692;2023-06-24T04:42:44;8.25;;;6.65;;
53751;SDS011;41095;53.090;6.692;2023-06-24T04:45:10;7.65;;;6.18;;
53751;SDS011;41095;53.090;6.692;2023-06-24T04:47:35;10.30;;;7.78;;
53751;SDS011;41095;53.090;6.692;2023-06-24T04:50:01;8.02;;;6.30;;
53751;SDS011;41095;53.090;6.692;2023-06-24T04:52:27;12.60;;;8.60;;
53751;SDS011;41095;53.090;6.692;2023-06-24T04:54:53;9.73;;;8.73;;
53751;SDS011;41095;53.090;6.692;2023-06-24T04:57:28;10.85;;;7.40;;
53751;SDS011;41095;53.090;6.692;2023-06-24T04:59:55;11.10;;;7.55;;
53751;SDS011;41095;53.090;6.692;2023-06-24T05:02:22;9.27;;;7.82;;
53751;SDS011;41095;53.090;6.692;2023-06-24T05:04:48;12.45;;;8.18;;
53751;SDS011;41095;53.090;6.692;2023-06-24T05:07:14;10.50;;;7.82;;
53751;SDS011;41095;53.090;6.692;2023-06-24T05:09:40;11.65;;;8.32;;
53751;SDS011;41095;53.090;6.692;2023-06-24T05:12:08;9.90;;;6.80;;
53751;SDS011;41095;53.090;6.692;2023-06-24T05:14:34;10.07;;;8.13;;
53751;SDS011;41095;53.090;6.692;2023-06-24T05:17:00;9.65;;;7.60;;
53751;SDS011;41095;53.090;6.692;2023-06-24T05:19:26;10.80;;;7.10;;
53751;SDS011;41095;53.090;6.692;2023-06-24T05:21:52;12.35;;;7.85;;
53751;SDS011;41095;53.090;6.692;2023-06-24T05:24:17;8.75;;;7.13;;
53751;SDS011;41095;53.090;6.692;2023-06-24T05:26:44;9.68;;;7.47;;
53751;SDS011;41095;53.090;6.692;2023-06-24T05:29:12;15.35;;;9.05;;
53751;SDS011;41095;53.090;6.692;2023-06-24T05:31:37;10.65;;;8.18;;
53751;SDS011;41095;53.090;6.692;2023-06-24T05:34:05;8.85;;;7.30;;
53751;SDS011;41095;53.090;6.692;2023-06-24T05:36:31;13.25;;;8.77;;
53751;SDS011;41095;53.090;6.692;2023-06-24T05:38:56;11.48;;;8.32;;
53751;SDS011;41095;53.090;6.692;2023-06-24T05:41:22;9.77;;;8.32;;
53751;SDS011;41095;53.090;6.692;2023-06-24T05:43:48;13.15;;;8.35;;
53751;SDS011;41095;53.090;6.692;2023-06-24T05:46:13;10.60;;;9.30;;
53751;SDS011;41095;53.090;6.692;2023-06-24T05:48:39;11.95;;;8.35;;
53751;SDS011;41095;53.090;6.692;2023-06-24T05:51:05;10.63;;;7.90;;
53751;SDS011;41095;53.090;6.692;2023-06-24T05:53:31;10.45;;;7.97;;
53751;SDS011;41095;53.090;6.692;2023-06-24T05:55:56;10.70;;;7.95;;
53751;SDS011;41095;53.090;6.692;2023-06-24T05:58:22;10.27;;;8.65;;
53751;SDS011;41095;53.090;6.692;2023-06-24T06:00:48;11.02;;;7.90;;
53751;SDS011;41095;53.090;6.692;2023-06-24T06:03:13;12.50;;;8.57;;
53751;SDS011;41095;53.090;6.692;2023-06-24T06:05:39;10.30;;;8.15;;
53751;SDS011;41095;53.090;6.692;2023-06-24T06:08:05;8.85;;;7.78;;
53751;SDS011;41095;53.090;6.692;2023-06-24T06:10:30;11.05;;;8.68;;
53751;SDS011;41095;53.090;6.692;2023-06-24T06:12:56;9.05;;;7.63;;
53751;SDS011;41095;53.090;6.692;2023-06-24T06:15:22;11.82;;;8.15;;
53751;SDS011;41095;53.090;6.692;2023-06-24T06:17:47;9.63;;;7.10;;
53751;SDS011;41095;53.090;6.692;2023-06-24T06:20:13;9.55;;;7.63;;
53751;SDS011;41095;53.090;6.692;2023-06-24T06:22:39;8.90;;;6.65;;
53751;SDS011;41095;53.090;6.692;2023-06-24T06:25:05;8.90;;;7.18;;
53751;SDS011;41095;53.090;6.692;2023-06-24T06:27:31;7.93;;;6.07;;
53751;SDS011;41095;53.090;6.692;2023-06-24T06:29:57;7.90;;;6.05;;
53751;SDS011;41095;53.090;6.692;2023-06-24T06:32:22;6.63;;;5.35;;
53751;SDS011;41095;53.090;6.692;2023-06-24T06:34:48;10.27;;;6.25;;
53751;SDS011;41095;53.090;6.692;2023-06-24T06:37:14;6.55;;;5.13;;
53751;SDS011;41095;53.090;6.692;2023-06-24T06:39:40;8.27;;;6.15;;
53751;SDS011;41095;53.090;6.692;2023-06-24T06:42:06;5.88;;;5.05;;
53751;SDS011;41095;53.090;6.692;2023-06-24T06:44:31;10.00;;;5.30;;
53751;SDS011;41095;53.090;6.692;2023-06-24T06:46:57;7.53;;;5.90;;
53751;SDS011;41095;53.090;6.692;2023-06-24T06:49:23;6.93;;;5.75;;
53751;SDS011;41095;53.090;6.692;2023-06-24T06:51:48;8.63;;;6.43;;
53751;SDS011;41095;53.090;6.692;2023-06-24T06:54:14;8.10;;;6.13;;
53751;SDS011;41095;53.090;6.692;2023-06-24T06:56:40;7.03;;;5.78;;
53751;SDS011;41095;53.090;6.692;2023-06-24T06:59:05;7.25;;;6.45;;
53751;SDS011;41095;53.090;6.692;2023-06-24T07:01:31;7.43;;;6.10;;
53751;SDS011;41095;53.090;6.692;2023-06-24T07:03:57;7.68;;;6.88;;
53751;SDS011;41095;53.090;6.692;2023-06-24T07:06:22;7.88;;;6.43;;
53751;SDS011;41095;53.090;6.692;2023-06-24T07:08:48;9.27;;;6.68;;
53751;SDS011;41095;53.090;6.692;2023-06-24T07:11:14;8.70;;;6.25;;
53751;SDS011;41095;53.090;6.692;2023-06-24T07:13:40;9.05;;;7.32;;
53751;SDS011;41095;53.090;6.692;2023-06-24T07:16:05;10.60;;;7.03;;
53751;SDS011;41095;53.090;6.692;2023-06-24T07:18:31;9.52;;;7.07;;
53751;SDS011;41095;53.090;6.692;2023-06-24T07:20:59;7.63;;;6.82;;
53751;SDS011;41095;53.090;6.692;2023-06-24T07:23:25;11.55;;;7.65;;
53751;SDS011;41095;53.090;6.692;2023-06-24T07:25:50;12.18;;;7.30;;
53751;SDS011;41095;53.090;6.692;2023-06-24T07:28:16;9.05;;;7.07;;
53751;SDS011;41095;53.090;6.692;2023-06-24T07:30:42;11.60;;;8.60;;
53751;SDS011;41095;53.090;6.692;2023-06-24T07:33:08;8.48;;;6.40;;
53751;SDS011;41095;53.090;6.692;2023-06-24T07:35:34;8.25;;;7.35;;
53751;SDS011;41095;53.090;6.692;2023-06-24T07:38:00;11.95;;;7.63;;
53751;SDS011;41095;53.090;6.692;2023-06-24T07:40:26;8.88;;;7.50;;
53751;SDS011;41095;53.090;6.692;2023-06-24T07:42:53;10.07;;;7.43;;
53751;SDS011;41095;53.090;6.692;2023-06-24T07:45:19;13.60;;;7.85;;
53751;SDS011;41095;53.090;6.692;2023-06-24T07:47:44;7.95;;;7.18;;
53751;SDS011;41095;53.090;6.692;2023-06-24T07:50:10;11.50;;;6.80;;
53751;SDS011;41095;53.090;6.692;2023-06-24T07:52:36;13.10;;;8.55;;
53751;SDS011;41095;53.090;6.692;2023-06-24T07:55:02;10.70;;;7.25;;
53751;SDS011;41095;53.090;6.692;2023-06-24T07:57:29;11.07;;;7.07;;
53751;SDS011;41095;53.090;6.692;2023-06-24T07:59:55;11.52;;;6.97;;
53751;SDS011;41095;53.090;6.692;2023-06-24T08:02:21;10.43;;;7.25;;
53751;SDS011;41095;53.090;6.692;2023-06-24T08:04:49;8.30;;;5.15;;
53751;SDS011;41095;53.090;6.692;2023-06-24T08:07:15;9.27;;;5.13;;
53751;SDS011;41095;53.090;6.692;2023-06-24T08:09:40;5.85;;;3.92;;
53751;SDS011;41095;53.090;6.692;2023-06-24T08:12:06;7.57;;;4.50;;
53751;SDS011;41095;53.090;6.692;2023-06-24T08:14:32;5.40;;;4.53;;
53751;SDS011;41095;53.090;6.692;2023-06-24T08:16:58;4.80;;;3.97;;
53751;SDS011;41095;53.090;6.692;2023-06-24T08:19:24;5.15;;;4.18;;
53751;SDS011;41095;53.090;6.692;2023-06-24T08:21:49;4.57;;;3.90;;
53751;SDS011;41095;53.090;6.692;2023-06-24T08:24:15;4.22;;;3.58;;
53751;SDS011;41095;53.090;6.692;2023-06-24T08:26:41;5.05;;;3.47;;
53751;SDS011;41095;53.090;6.692;2023-06-24T08:29:06;6.47;;;4.07;;
53751;SDS011;41095;53.090;6.692;2023-06-24T08:31:32;4.05;;;3.65;;
53751;SDS011;41095;53.090;6.692;2023-06-24T08:34:01;6.05;;;3.70;;
53751;SDS011;41095;53.090;6.692;2023-06-24T08:36:27;4.22;;;3.83;;
53751;SDS011;41095;53.090;6.692;2023-06-24T08:38:54;3.78;;;3.35;;
53751;SDS011;41095;53.090;6.692;2023-06-24T08:41:20;6.28;;;4.47;;
53751;SDS011;41095;53.090;6.692;2023-06-24T08:43:47;6.75;;;4.13;;
53751;SDS011;41095;53.090;6.692;2023-06-24T08:46:13;5.68;;;3.97;;
53751;SDS011;41095;53.090;6.692;2023-06-24T08:48:41;6.10;;;4.15;;
53751;SDS011;41095;53.090;6.692;2023-06-24T08:51:09;5.68;;;4.18;;
53751;SDS011;41095;53.090;6.692;2023-06-24T08:53:38;5.90;;;4.10;;
53751;SDS011;41095;53.090;6.692;2023-06-24T08:56:07;6.63;;;4.22;;
53751;SDS011;41095;53.090;6.692;2023-06-24T08:58:33;5.50;;;4.00;;
53751;SDS011;41095;53.090;6.692;2023-06-24T09:00:59;5.82;;;4.32;;
53751;SDS011;41095;53.090;6.692;2023-06-24T09:03:25;7.00;;;4.80;;
53751;SDS011;41095;53.090;6.692;2023-06-24T09:05:51;6.13;;;4.03;;
53751;SDS011;41095;53.090;6.692;2023-06-24T09:08:17;11.43;;;4.38;;
53751;SDS011;41095;53.090;6.692;2023-06-24T09:10:43;5.25;;;4.05;;
53751;SDS011;41095;53.090;6.692;2023-06-24T09:13:09;14.48;;;4.40;;
53751;SDS011;41095;53.090;6.692;2023-06-24T09:15:35;5.53;;;4.20;;
53751;SDS011;41095;53.090;6.692;2023-06-24T09:18:02;6.40;;;3.95;;
53751;SDS011;41095;53.090;6.692;2023-06-24T09:20:29;6.78;;;3.65;;
53751;SDS011;41095;53.090;6.692;2023-06-24T09:23:03;4.82;;;4.38;;
53751;SDS011;41095;53.090;6.692;2023-06-24T09:25:30;6.57;;;4.07;;
53751;SDS011;41095;53.090;6.692;2023-06-24T09:27:59;5.40;;;4.30;;
53751;SDS011;41095;53.090;6.692;2023-06-24T09:30:26;5.35;;;3.45;;
53751;SDS011;41095;53.090;6.692;2023-06-24T09:32:52;7.50;;;3.97;;
53751;SDS011;41095;53.090;6.692;2023-06-24T09:35:19;8.23;;;4.00;;
53751;SDS011;41095;53.090;6.692;2023-06-24T09:37:56;4.35;;;3.42;;
53751;SDS011;41095;53.090;6.692;2023-06-24T09:40:24;7.80;;;4.22;;
53751;SDS011;41095;53.090;6.692;2023-06-24T09:42:51;5.53;;;4.78;;
53751;SDS011;41095;53.090;6.692;2023-06-24T09:45:21;6.28;;;4.60;;
53751;SDS011;41095;53.090;6.692;2023-06-24T09:47:51;7.80;;;4.80;;
53751;SDS011;41095;53.090;6.692;2023-06-24T09:50:18;5.50;;;4.57;;
53751;SDS011;41095;53.090;6.692;2023-06-24T09:52:44;5.35;;;3.65;;
53751;SDS011;41095;53.090;6.692;2023-06-24T09:55:15;6.63;;;3.95;;
53751;SDS011;41095;53.090;6.692;2023-06-24T09:57:45;5.07;;;3.65;;
53751;SDS011;41095;53.090;6.692;2023-06-24T10:00:13;7.20;;;4.55;;
53751;SDS011;41095;53.090;6.692;2023-06-24T10:02:40;4.55;;;3.55;;
53751;SDS011;41095;53.090;6.692;2023-06-24T10:05:06;7.82;;;3.92;;
53751;SDS011;41095;53.090;6.692;2023-06-24T10:07:33;4.50;;;3.75;;
53751;SDS011;41095;53.090;6.692;2023-06-24T10:10:03;3.70;;;3.22;;
53751;SDS011;41095;53.090;6.692;2023-06-24T10:12:30;8.77;;;3.88;;
53751;SDS011;41095;53.090;6.692;2023-06-24T10:14:57;5.28;;;3.20;;
53751;SDS011;41095;53.090;6.692;2023-06-24T10:17:24;4.80;;;4.13;;
53751;SDS011;41095;53.090;6.692;2023-06-24T10:19:51;4.25;;;3.38;;
53751;SDS011;41095;53.090;6.692;2023-06-24T10:22:20;5.05;;;3.85;;
53751;SDS011;41095;53.090;6.692;2023-06-24T10:24:48;4.97;;;3.42;;
53751;SDS011;41095;53.090;6.692;2023-06-24T10:27:23;4.50;;;4.10;;
53751;SDS011;41095;53.090;6.692;2023-06-24T10:29:49;4.45;;;3.90;;
53751;SDS011;41095;53.090;6.692;2023-06-24T10:32:21;3.70;;;3.40;;
53751;SDS011;41095;53.090;6.692;2023-06-24T10:34:54;5.25;;;3.47;;
53751;SDS011;41095;53.090;6.692;2023-06-24T10:37:25;4.93;;;3.38;;
53751;SDS011;41095;53.090;6.692;2023-06-24T10:39:52;6.32;;;3.80;;
53751;SDS011;41095;53.090;6.692;2023-06-24T10:44:50;5.03;;;3.70;;
53751;SDS011;41095;53.090;6.692;2023-06-24T10:47:17;6.22;;;3.58;;
53751;SDS011;41095;53.090;6.692;2023-06-24T10:49:43;3.92;;;3.22;;
53751;SDS011;41095;53.090;6.692;2023-06-24T10:52:09;3.92;;;3.28;;
53751;SDS011;41095;53.090;6.692;2023-06-24T10:54:39;3.63;;;2.90;;
53751;SDS011;41095;53.090;6.692;2023-06-24T10:57:06;2.83;;;2.53;;
53751;SDS011;41095;53.090;6.692;2023-06-24T10:59:35;3.95;;;3.17;;
53751;SDS011;41095;53.090;6.692;2023-06-24T11:02:12;4.32;;;3.13;;
53751;SDS011;41095;53.090;6.692;2023-06-24T11:04:43;7.20;;;4.03;;
53751;SDS011;41095;53.090;6.692;2023-06-24T11:07:08;4.47;;;3.53;;
53751;SDS011;41095;53.090;6.692;2023-06-24T11:09:34;4.28;;;3.13;;
53751;SDS011;41095;53.090;6.692;2023-06-24T11:12:02;3.33;;;3.03;;
53751;SDS011;41095;53.090;6.692;2023-06-24T11:14:32;5.30;;;3.05;;
53751;SDS011;41095;53.090;6.692;2023-06-24T11:17:02;3.75;;;3.45;;
53751;SDS011;41095;53.090;6.692;2023-06-24T11:19:29;7.68;;;3.90;;
53751;SDS011;41095;53.090;6.692;2023-06-24T11:22:02;10.73;;;4.20;;
53751;SDS011;41095;53.090;6.692;2023-06-24T11:24:28;7.40;;;3.15;;
53751;SDS011;41095;53.090;6.692;2023-06-24T11:26:54;10.30;;;3.70;;
53751;SDS011;41095;53.090;6.692;2023-06-24T11:29:20;3.63;;;3.28;;
53751;SDS011;41095;53.090;6.692;2023-06-24T11:31:46;4.50;;;3.25;;
53751;SDS011;41095;53.090;6.692;2023-06-24T11:34:13;4.28;;;3.17;;
53751;SDS011;41095;53.090;6.692;2023-06-24T11:36:39;3.88;;;3.15;;
53751;SDS011;41095;53.090;6.692;2023-06-24T11:39:05;3.33;;;3.03;;
53751;SDS011;41095;53.090;6.692;2023-06-24T11:41:31;6.03;;;3.30;;
53751;SDS011;41095;53.090;6.692;2023-06-24T11:43:57;4.03;;;3.42;;
53751;SDS011;41095;53.090;6.692;2023-06-24T11:46:28;3.75;;;3.33;;
53751;SDS011;41095;53.090;6.692;2023-06-24T11:49:05;3.95;;;3.38;;
53751;SDS011;41095;53.090;6.692;2023-06-24T11:51:31;3.95;;;3.00;;
53751;SDS011;41095;53.090;6.692;2023-06-24T11:54:04;4.47;;;3.17;;
53751;SDS011;41095;53.090;6.692;2023-06-24T11:56:37;5.65;;;3.35;;
53751;SDS011;41095;53.090;6.692;2023-06-24T11:59:04;3.72;;;3.38;;
53751;SDS011;41095;53.090;6.692;2023-06-24T12:01:31;4.30;;;3.22;;
53751;SDS011;41095;53.090;6.692;2023-06-24T12:03:59;5.47;;;3.25;;
53751;SDS011;41095;53.090;6.692;2023-06-24T12:06:26;3.80;;;2.78;;
53751;SDS011;41095;53.090;6.692;2023-06-24T12:08:52;4.10;;;3.28;;
53751;SDS011;41095;53.090;6.692;2023-06-24T12:11:19;10.95;;;3.83;;
53751;SDS011;41095;53.090;6.692;2023-06-24T12:13:44;4.55;;;3.47;;
53751;SDS011;41095;53.090;6.692;2023-06-24T12:16:11;4.35;;;3.33;;
53751;SDS011;41095;53.090;6.692;2023-06-24T12:18:37;4.40;;;3.03;;
53751;SDS011;41095;53.090;6.692;2023-06-24T12:21:03;5.03;;;3.70;;
53751;SDS011;41095;53.090;6.692;2023-06-24T12:23:29;5.07;;;3.50;;
53751;SDS011;41095;53.090;6.692;2023-06-24T12:25:54;5.18;;;4.03;;
53751;SDS011;41095;53.090;6.692;2023-06-24T12:28:20;4.18;;;3.83;;
53751;SDS011;41095;53.090;6.692;2023-06-24T12:30:46;4.00;;;3.40;;
53751;SDS011;41095;53.090;6.692;2023-06-24T12:33:11;4.15;;;3.33;;
53751;SDS011;41095;53.090;6.692;2023-06-24T12:35:37;4.22;;;3.38;;
53751;SDS011;41095;53.090;6.692;2023-06-24T12:38:02;4.65;;;3.50;;
53751;SDS011;41095;53.090;6.692;2023-06-24T12:40:28;4.95;;;4.07;;
53751;SDS011;41095;53.090;6.692;2023-06-24T12:42:54;3.53;;;3.10;;
53751;SDS011;41095;53.090;6.692;2023-06-24T12:45:20;4.32;;;3.75;;
53751;SDS011;41095;53.090;6.692;2023-06-24T12:47:46;4.43;;;3.63;;
53751;SDS011;41095;53.090;6.692;2023-06-24T12:50:12;4.65;;;3.50;;
53751;SDS011;41095;53.090;6.692;2023-06-24T12:52:38;4.60;;;3.05;;
53751;SDS011;41095;53.090;6.692;2023-06-24T12:55:04;3.72;;;3.28;;
53751;SDS011;41095;53.090;6.692;2023-06-24T12:57:31;3.88;;;3.47;;
53751;SDS011;41095;53.090;6.692;2023-06-24T12:59:57;4.78;;;3.20;;
53751;SDS011;41095;53.090;6.692;2023-06-24T13:02:23;3.78;;;3.22;;
53751;SDS011;41095;53.090;6.692;2023-06-24T13:04:48;3.47;;;3.17;;
53751;SDS011;41095;53.090;6.692;2023-06-24T13:07:14;3.97;;;3.28;;
53751;SDS011;41095;53.090;6.692;2023-06-24T13:09:40;4.30;;;3.50;;
53751;SDS011;41095;53.090;6.692;2023-06-24T13:12:06;3.65;;;2.95;;
53751;SDS011;41095;53.090;6.692;2023-06-24T13:14:33;3.58;;;3.20;;
53751;SDS011;41095;53.090;6.692;2023-06-24T13:16:58;4.22;;;3.22;;
53751;SDS011;41095;53.090;6.692;2023-06-24T13:19:24;4.95;;;3.30;;
53751;SDS011;41095;53.090;6.692;2023-06-24T13:21:50;3.78;;;2.90;;
53751;SDS011;41095;53.090;6.692;2023-06-24T13:24:16;4.22;;;3.25;;
53751;SDS011;41095;53.090;6.692;2023-06-24T13:26:41;4.72;;;3.33;;
53751;SDS011;41095;53.090;6.692;2023-06-24T13:29:07;4.68;;;3.10;;
53751;SDS011;41095;53.090;6.692;2023-06-24T13:31:34;5.38;;;3.40;;
53751;SDS011;41095;53.090;6.692;2023-06-24T13:33:59;4.15;;;3.08;;
53751;SDS011;41095;53.090;6.692;2023-06-24T13:36:29;7.60;;;3.20;;
53751;SDS011;41095;53.090;6.692;2023-06-24T13:39:03;6.13;;;3.80;;
53751;SDS011;41095;53.090;6.692;2023-06-24T13:41:29;3.60;;;3.30;;
53751;SDS011;41095;53.090;6.692;2023-06-24T13:43:57;5.05;;;3.70;;
53751;SDS011;41095;53.090;6.692;2023-06-24T13:46:24;4.82;;;3.95;;
53751;SDS011;41095;53.090;6.692;2023-06-24T13:48:49;4.15;;;3.45;;
53751;SDS011;41095;53.090;6.692;2023-06-24T13:51:16;4.65;;;3.35;;
53751;SDS011;41095;53.090;6.692;2023-06-24T13:53:42;5.28;;;3.13;;
53751;SDS011;41095;53.090;6.692;2023-06-24T13:56:08;3.88;;;3.47;;
53751;SDS011;41095;53.090;6.692;2023-06-24T13:58:34;5.57;;;3.55;;
53751;SDS011;41095;53.090;6.692;2023-06-24T14:01:00;5.03;;;3.42;;
53751;SDS011;41095;53.090;6.692;2023-06-24T14:03:26;4.07;;;3.15;;
53751;SDS011;41095;53.090;6.692;2023-06-24T14:05:51;3.60;;;3.30;;
53751;SDS011;41095;53.090;6.692;2023-06-24T14:08:17;6.60;;;4.28;;
53751;SDS011;41095;53.090;6.692;2023-06-24T14:10:43;3.33;;;3.03;;
53751;SDS011;41095;53.090;6.692;2023-06-24T14:13:08;3.75;;;3.20;;
53751;SDS011;41095;53.090;6.692;2023-06-24T14:15:34;5.22;;;3.50;;
53751;SDS011;41095;53.090;6.692;2023-06-24T14:18:00;4.20;;;3.55;;
53751;SDS011;41095;53.090;6.692;2023-06-24T14:20:26;4.72;;;3.60;;
53751;SDS011;41095;53.090;6.692;2023-06-24T14:22:51;4.45;;;3.97;;
53751;SDS011;41095;53.090;6.692;2023-06-24T14:25:17;4.90;;;4.00;;
53751;SDS011;41095;53.090;6.692;2023-06-24T14:27:43;4.68;;;3.83;;
53751;SDS011;41095;53.090;6.692;2023-06-24T14:30:09;5.25;;;3.67;;
53751;SDS011;41095;53.090;6.692;2023-06-24T14:32:35;6.25;;;3.42;;
53751;SDS011;41095;53.090;6.692;2023-06-24T14:35:01;5.35;;;3.40;;
53751;SDS011;41095;53.090;6.692;2023-06-24T14:37:26;3.40;;;3.10;;
53751;SDS011;41095;53.090;6.692;2023-06-24T14:39:52;4.53;;;3.22;;
53751;SDS011;41095;53.090;6.692;2023-06-24T14:42:18;8.07;;;3.47;;
53751;SDS011;41095;53.090;6.692;2023-06-24T14:44:43;3.38;;;3.05;;
53751;SDS011;41095;53.090;6.692;2023-06-24T14:47:09;7.18;;;3.03;;
53751;SDS011;41095;53.090;6.692;2023-06-24T14:49:35;3.65;;;2.78;;
53751;SDS011;41095;53.090;6.692;2023-06-24T14:52:00;4.00;;;3.10;;
53751;SDS011;41095;53.090;6.692;2023-06-24T14:54:26;4.32;;;3.13;;